sensor_id;sensor_type;location;lat;lon;timestamp;P1;durP1;ratioP1;P2;durP2;ratioP2
54261;SDS011;40174;52.364;6.452;2023-04-30T00:01:57;8.75;;;3.45;;
54261;SDS011;40174;52.364;6.452;2023-04-30T00:04:24;11.98;;;4.10;;
54261;SDS011;40174;52.364;6.452;2023-04-30T00:06:50;12.65;;;4.55;;
54261;SDS011;40174;52.364;6.452;2023-04-30T00:09:17;9.50;;;3.50;;
54261;SDS011;40174;52.364;6.452;2023-04-30T00:11:44;11.00;;;3.90;;
54261;SDS011;40174;52.364;6.452;2023-04-30T00:14:12;8.45;;;3.50;;
54261;SDS011;40174;52.364;6.452;2023-04-30T00:16:38;5.93;;;2.78;;
54261;SDS011;40174;52.364;6.452;2023-04-30T00:19:05;7.55;;;3.03;;
54261;SDS011;40174;52.364;6.452;2023-04-30T00:21:32;9.65;;;3.45;;
54261;SDS011;40174;52.364;6.452;2023-04-30T00:23:59;10.18;;;3.65;;
54261;SDS011;40174;52.364;6.452;2023-04-30T00:26:26;9.43;;;3.72;;
54261;SDS011;40174;52.364;6.452;2023-04-30T00:28:53;11.65;;;3.97;;
54261;SDS011;40174;52.364;6.452;2023-04-30T00:31:21;10.30;;;4.15;;
54261;SDS011;40174;52.364;6.452;2023-04-30T00:33:47;8.95;;;3.50;;
54261;SDS011;40174;52.364;6.452;2023-04-30T00:36:14;9.23;;;3.70;;
54261;SDS011;40174;52.364;6.452;2023-04-30T00:38:40;9.65;;;3.92;;
54261;SDS011;40174;52.364;6.452;2023-04-30T00:41:07;9.93;;;3.58;;
54261;SDS011;40174;52.364;6.452;2023-04-30T00:43:34;7.03;;;3.15;;
54261;SDS011;40174;52.364;6.452;2023-04-30T00:46:00;12.57;;;3.65;;
54261;SDS011;40174;52.364;6.452;2023-04-30T00:48:29;9.07;;;3.85;;
54261;SDS011;40174;52.364;6.452;2023-04-30T00:50:56;11.68;;;3.65;;
54261;SDS011;40174;52.364;6.452;2023-04-30T00:53:22;9.95;;;3.83;;
54261;SDS011;40174;52.364;6.452;2023-04-30T00:55:49;11.73;;;4.05;;
54261;SDS011;40174;52.364;6.452;2023-04-30T00:58:17;19.00;;;3.97;;
54261;SDS011;40174;52.364;6.452;2023-04-30T01:00:43;12.52;;;4.00;;
54261;SDS011;40174;52.364;6.452;2023-04-30T01:03:11;10.23;;;3.53;;
54261;SDS011;40174;52.364;6.452;2023-04-30T01:05:39;8.40;;;3.30;;
54261;SDS011;40174;52.364;6.452;2023-04-30T01:08:06;9.70;;;3.30;;
54261;SDS011;40174;52.364;6.452;2023-04-30T01:10:35;10.98;;;4.22;;
54261;SDS011;40174;52.364;6.452;2023-04-30T01:13:10;8.43;;;3.05;;
54261;SDS011;40174;52.364;6.452;2023-04-30T01:15:44;11.18;;;3.83;;
54261;SDS011;40174;52.364;6.452;2023-04-30T01:18:17;12.90;;;3.85;;
54261;SDS011;40174;52.364;6.452;2023-04-30T01:20:53;9.68;;;3.53;;
54261;SDS011;40174;52.364;6.452;2023-04-30T01:23:26;10.18;;;3.67;;
54261;SDS011;40174;52.364;6.452;2023-04-30T01:26:06;8.75;;;3.47;;
54261;SDS011;40174;52.364;6.452;2023-04-30T01:28:40;8.63;;;3.70;;
54261;SDS011;40174;52.364;6.452;2023-04-30T01:31:10;8.43;;;3.75;;
54261;SDS011;40174;52.364;6.452;2023-04-30T01:33:39;10.82;;;3.55;;
54261;SDS011;40174;52.364;6.452;2023-04-30T01:43:44;10.07;;;3.95;;
54261;SDS011;40174;52.364;6.452;2023-04-30T01:46:19;9.18;;;3.67;;
54261;SDS011;40174;52.364;6.452;2023-04-30T01:48:52;10.32;;;3.65;;
54261;SDS011;40174;52.364;6.452;2023-04-30T01:51:27;13.07;;;4.55;;
54261;SDS011;40174;52.364;6.452;2023-04-30T01:53:59;8.88;;;3.38;;
54261;SDS011;40174;52.364;6.452;2023-04-30T01:56:32;12.32;;;3.88;;
54261;SDS011;40174;52.364;6.452;2023-04-30T01:59:04;8.63;;;3.55;;
54261;SDS011;40174;52.364;6.452;2023-04-30T02:01:31;10.93;;;4.18;;
54261;SDS011;40174;52.364;6.452;2023-04-30T02:03:58;8.80;;;3.95;;
54261;SDS011;40174;52.364;6.452;2023-04-30T02:06:25;8.25;;;3.78;;
54261;SDS011;40174;52.364;6.452;2023-04-30T02:08:53;12.57;;;4.15;;
54261;SDS011;40174;52.364;6.452;2023-04-30T02:11:21;9.07;;;3.80;;
54261;SDS011;40174;52.364;6.452;2023-04-30T02:13:48;10.80;;;4.30;;
54261;SDS011;40174;52.364;6.452;2023-04-30T02:16:17;8.48;;;3.92;;
54261;SDS011;40174;52.364;6.452;2023-04-30T02:18:44;7.97;;;3.92;;
54261;SDS011;40174;52.364;6.452;2023-04-30T02:21:11;8.32;;;3.90;;
54261;SDS011;40174;52.364;6.452;2023-04-30T02:23:38;10.43;;;3.65;;
54261;SDS011;40174;52.364;6.452;2023-04-30T02:26:06;13.23;;;5.07;;
54261;SDS011;40174;52.364;6.452;2023-04-30T02:28:33;12.02;;;4.15;;
54261;SDS011;40174;52.364;6.452;2023-04-30T02:31:00;10.18;;;3.90;;
54261;SDS011;40174;52.364;6.452;2023-04-30T02:33:28;10.35;;;4.28;;
54261;SDS011;40174;52.364;6.452;2023-04-30T02:35:54;10.40;;;4.18;;
54261;SDS011;40174;52.364;6.452;2023-04-30T02:38:24;12.20;;;4.65;;
54261;SDS011;40174;52.364;6.452;2023-04-30T02:40:50;8.98;;;4.10;;
54261;SDS011;40174;52.364;6.452;2023-04-30T02:43:17;11.05;;;4.13;;
54261;SDS011;40174;52.364;6.452;2023-04-30T02:45:43;11.77;;;4.93;;
54261;SDS011;40174;52.364;6.452;2023-04-30T02:48:10;9.65;;;4.60;;
54261;SDS011;40174;52.364;6.452;2023-04-30T02:50:38;11.57;;;4.35;;
54261;SDS011;40174;52.364;6.452;2023-04-30T02:53:04;11.13;;;4.47;;
54261;SDS011;40174;52.364;6.452;2023-04-30T02:55:31;10.07;;;4.30;;
54261;SDS011;40174;52.364;6.452;2023-04-30T02:57:58;9.82;;;4.63;;
54261;SDS011;40174;52.364;6.452;2023-04-30T03:00:24;11.10;;;4.68;;
54261;SDS011;40174;52.364;6.452;2023-04-30T03:02:51;8.75;;;3.95;;
54261;SDS011;40174;52.364;6.452;2023-04-30T03:05:18;10.68;;;4.57;;
54261;SDS011;40174;52.364;6.452;2023-04-30T03:07:46;11.55;;;4.22;;
54261;SDS011;40174;52.364;6.452;2023-04-30T03:10:12;12.50;;;4.68;;
54261;SDS011;40174;52.364;6.452;2023-04-30T03:12:39;11.80;;;4.68;;
54261;SDS011;40174;52.364;6.452;2023-04-30T03:15:06;11.23;;;4.90;;
54261;SDS011;40174;52.364;6.452;2023-04-30T03:17:34;9.60;;;4.28;;
54261;SDS011;40174;52.364;6.452;2023-04-30T03:20:00;13.63;;;4.82;;
54261;SDS011;40174;52.364;6.452;2023-04-30T03:22:27;10.40;;;4.85;;
54261;SDS011;40174;52.364;6.452;2023-04-30T03:24:55;15.02;;;5.32;;
54261;SDS011;40174;52.364;6.452;2023-04-30T03:27:22;10.75;;;4.53;;
54261;SDS011;40174;52.364;6.452;2023-04-30T03:29:48;15.15;;;4.65;;
54261;SDS011;40174;52.364;6.452;2023-04-30T03:32:15;13.27;;;5.30;;
54261;SDS011;40174;52.364;6.452;2023-04-30T03:34:42;12.45;;;5.13;;
54261;SDS011;40174;52.364;6.452;2023-04-30T03:37:08;10.73;;;4.40;;
54261;SDS011;40174;52.364;6.452;2023-04-30T03:39:35;10.75;;;4.55;;
54261;SDS011;40174;52.364;6.452;2023-04-30T03:42:03;10.45;;;4.15;;
54261;SDS011;40174;52.364;6.452;2023-04-30T03:44:29;9.77;;;4.57;;
54261;SDS011;40174;52.364;6.452;2023-04-30T03:46:56;9.73;;;3.90;;
54261;SDS011;40174;52.364;6.452;2023-04-30T03:49:23;12.10;;;4.05;;
54261;SDS011;40174;52.364;6.452;2023-04-30T03:51:50;8.07;;;3.88;;
54261;SDS011;40174;52.364;6.452;2023-04-30T03:54:16;7.70;;;3.83;;
54261;SDS011;40174;52.364;6.452;2023-04-30T03:56:43;8.70;;;3.67;;
54261;SDS011;40174;52.364;6.452;2023-04-30T03:59:11;6.47;;;3.28;;
54261;SDS011;40174;52.364;6.452;2023-04-30T04:01:38;6.78;;;3.13;;
54261;SDS011;40174;52.364;6.452;2023-04-30T04:04:05;9.18;;;3.75;;
54261;SDS011;40174;52.364;6.452;2023-04-30T04:06:32;12.57;;;4.32;;
54261;SDS011;40174;52.364;6.452;2023-04-30T04:08:58;12.30;;;4.50;;
54261;SDS011;40174;52.364;6.452;2023-04-30T04:11:25;8.95;;;3.97;;
54261;SDS011;40174;52.364;6.452;2023-04-30T04:13:52;11.45;;;4.20;;
54261;SDS011;40174;52.364;6.452;2023-04-30T04:16:21;11.07;;;5.30;;
54261;SDS011;40174;52.364;6.452;2023-04-30T04:18:47;12.02;;;4.43;;
54261;SDS011;40174;52.364;6.452;2023-04-30T04:21:15;10.70;;;4.18;;
54261;SDS011;40174;52.364;6.452;2023-04-30T04:23:41;10.15;;;4.55;;
54261;SDS011;40174;52.364;6.452;2023-04-30T04:26:08;11.35;;;4.75;;
54261;SDS011;40174;52.364;6.452;2023-04-30T04:28:35;10.98;;;3.90;;
54261;SDS011;40174;52.364;6.452;2023-04-30T04:31:03;11.65;;;4.38;;
54261;SDS011;40174;52.364;6.452;2023-04-30T04:33:31;10.00;;;3.97;;
54261;SDS011;40174;52.364;6.452;2023-04-30T04:35:58;11.75;;;4.88;;
54261;SDS011;40174;52.364;6.452;2023-04-30T04:38:25;9.90;;;4.90;;
54261;SDS011;40174;52.364;6.452;2023-04-30T04:40:51;9.68;;;3.80;;
54261;SDS011;40174;52.364;6.452;2023-04-30T04:43:19;11.48;;;4.05;;
54261;SDS011;40174;52.364;6.452;2023-04-30T04:45:46;9.48;;;4.05;;
54261;SDS011;40174;52.364;6.452;2023-04-30T04:48:13;12.13;;;4.00;;
54261;SDS011;40174;52.364;6.452;2023-04-30T04:50:41;9.07;;;4.03;;
54261;SDS011;40174;52.364;6.452;2023-04-30T04:53:08;11.65;;;4.53;;
54261;SDS011;40174;52.364;6.452;2023-04-30T04:55:35;13.68;;;4.35;;
54261;SDS011;40174;52.364;6.452;2023-04-30T04:58:01;9.70;;;4.32;;
54261;SDS011;40174;52.364;6.452;2023-04-30T05:00:28;9.68;;;4.78;;
54261;SDS011;40174;52.364;6.452;2023-04-30T05:02:54;15.00;;;5.00;;
54261;SDS011;40174;52.364;6.452;2023-04-30T05:05:21;10.07;;;4.95;;
54261;SDS011;40174;52.364;6.452;2023-04-30T05:07:49;12.70;;;5.35;;
54261;SDS011;40174;52.364;6.452;2023-04-30T05:10:19;15.63;;;5.47;;
54261;SDS011;40174;52.364;6.452;2023-04-30T05:12:46;10.98;;;5.32;;
54261;SDS011;40174;52.364;6.452;2023-04-30T05:15:12;15.20;;;6.30;;
54261;SDS011;40174;52.364;6.452;2023-04-30T05:17:39;15.57;;;6.50;;
54261;SDS011;40174;52.364;6.452;2023-04-30T05:20:06;14.57;;;6.38;;
54261;SDS011;40174;52.364;6.452;2023-04-30T05:22:33;14.55;;;6.18;;
54261;SDS011;40174;52.364;6.452;2023-04-30T05:25:01;12.65;;;5.93;;
54261;SDS011;40174;52.364;6.452;2023-04-30T05:27:28;15.63;;;6.70;;
54261;SDS011;40174;52.364;6.452;2023-04-30T05:29:54;17.20;;;6.05;;
54261;SDS011;40174;52.364;6.452;2023-04-30T05:32:21;16.35;;;6.50;;
54261;SDS011;40174;52.364;6.452;2023-04-30T05:34:48;18.55;;;6.40;;
54261;SDS011;40174;52.364;6.452;2023-04-30T05:37:14;14.45;;;5.88;;
54261;SDS011;40174;52.364;6.452;2023-04-30T05:39:41;16.23;;;6.63;;
54261;SDS011;40174;52.364;6.452;2023-04-30T05:42:09;16.38;;;5.90;;
54261;SDS011;40174;52.364;6.452;2023-04-30T05:44:36;15.80;;;6.35;;
54261;SDS011;40174;52.364;6.452;2023-04-30T05:47:02;15.15;;;5.90;;
54261;SDS011;40174;52.364;6.452;2023-04-30T05:49:29;13.50;;;5.65;;
54261;SDS011;40174;52.364;6.452;2023-04-30T05:51:56;18.80;;;5.20;;
54261;SDS011;40174;52.364;6.452;2023-04-30T05:54:22;13.02;;;5.47;;
54261;SDS011;40174;52.364;6.452;2023-04-30T05:56:49;12.85;;;5.28;;
54261;SDS011;40174;52.364;6.452;2023-04-30T05:59:17;13.07;;;5.40;;
54261;SDS011;40174;52.364;6.452;2023-04-30T06:01:43;12.63;;;4.82;;
54261;SDS011;40174;52.364;6.452;2023-04-30T06:04:10;12.63;;;4.88;;
54261;SDS011;40174;52.364;6.452;2023-04-30T06:06:37;14.20;;;4.68;;
54261;SDS011;40174;52.364;6.452;2023-04-30T06:09:03;13.40;;;5.18;;
54261;SDS011;40174;52.364;6.452;2023-04-30T06:11:30;13.65;;;5.00;;
54261;SDS011;40174;52.364;6.452;2023-04-30T06:13:57;11.93;;;5.05;;
54261;SDS011;40174;52.364;6.452;2023-04-30T06:16:25;16.55;;;4.95;;
54261;SDS011;40174;52.364;6.452;2023-04-30T06:18:58;10.15;;;4.85;;
54261;SDS011;40174;52.364;6.452;2023-04-30T06:21:31;15.88;;;5.55;;
54261;SDS011;40174;52.364;6.452;2023-04-30T06:23:58;16.23;;;5.55;;
54261;SDS011;40174;52.364;6.452;2023-04-30T06:26:25;14.15;;;5.10;;
54261;SDS011;40174;52.364;6.452;2023-04-30T06:28:52;11.55;;;4.80;;
54261;SDS011;40174;52.364;6.452;2023-04-30T06:31:18;13.10;;;5.00;;
54261;SDS011;40174;52.364;6.452;2023-04-30T06:33:46;16.35;;;4.93;;
54261;SDS011;40174;52.364;6.452;2023-04-30T06:36:14;12.80;;;4.93;;
54261;SDS011;40174;52.364;6.452;2023-04-30T06:38:40;10.30;;;4.30;;
54261;SDS011;40174;52.364;6.452;2023-04-30T06:41:08;13.05;;;4.63;;
54261;SDS011;40174;52.364;6.452;2023-04-30T06:43:34;12.43;;;3.47;;
54261;SDS011;40174;52.364;6.452;2023-04-30T06:46:01;11.35;;;4.18;;
54261;SDS011;40174;52.364;6.452;2023-04-30T06:48:28;9.77;;;3.42;;
54261;SDS011;40174;52.364;6.452;2023-04-30T06:50:56;10.88;;;3.85;;
54261;SDS011;40174;52.364;6.452;2023-04-30T06:53:23;11.48;;;3.05;;
54261;SDS011;40174;52.364;6.452;2023-04-30T06:55:50;8.80;;;2.92;;
54261;SDS011;40174;52.364;6.452;2023-04-30T06:58:17;5.80;;;2.78;;
54261;SDS011;40174;52.364;6.452;2023-04-30T07:00:44;8.32;;;3.03;;
54261;SDS011;40174;52.364;6.452;2023-04-30T07:03:10;10.10;;;3.53;;
54261;SDS011;40174;52.364;6.452;2023-04-30T07:05:38;9.20;;;3.03;;
54261;SDS011;40174;52.364;6.452;2023-04-30T07:08:06;10.55;;;3.42;;
54261;SDS011;40174;52.364;6.452;2023-04-30T07:10:33;11.05;;;3.30;;
54261;SDS011;40174;52.364;6.452;2023-04-30T07:13:00;8.85;;;2.88;;
54261;SDS011;40174;52.364;6.452;2023-04-30T07:15:26;6.32;;;2.58;;
54261;SDS011;40174;52.364;6.452;2023-04-30T07:17:53;12.57;;;2.97;;
54261;SDS011;40174;52.364;6.452;2023-04-30T07:20:20;6.80;;;2.35;;
54261;SDS011;40174;52.364;6.452;2023-04-30T07:22:46;11.20;;;2.50;;
54261;SDS011;40174;52.364;6.452;2023-04-30T07:25:14;7.15;;;2.33;;
54261;SDS011;40174;52.364;6.452;2023-04-30T07:27:41;6.53;;;1.92;;
54261;SDS011;40174;52.364;6.452;2023-04-30T07:30:09;7.43;;;2.47;;
54261;SDS011;40174;52.364;6.452;2023-04-30T07:32:36;8.55;;;1.90;;
54261;SDS011;40174;52.364;6.452;2023-04-30T07:35:05;7.07;;;2.25;;
54261;SDS011;40174;52.364;6.452;2023-04-30T07:37:31;7.18;;;1.88;;
54261;SDS011;40174;52.364;6.452;2023-04-30T07:39:58;10.05;;;2.20;;
54261;SDS011;40174;52.364;6.452;2023-04-30T07:42:26;8.02;;;1.63;;
54261;SDS011;40174;52.364;6.452;2023-04-30T07:44:53;5.78;;;1.80;;
54261;SDS011;40174;52.364;6.452;2023-04-30T07:47:19;5.22;;;1.23;;
54261;SDS011;40174;52.364;6.452;2023-04-30T07:49:46;8.65;;;1.83;;
54261;SDS011;40174;52.364;6.452;2023-04-30T07:52:12;10.38;;;2.10;;
54261;SDS011;40174;52.364;6.452;2023-04-30T07:54:39;5.28;;;1.77;;
54261;SDS011;40174;52.364;6.452;2023-04-30T07:57:06;5.55;;;1.55;;
54261;SDS011;40174;52.364;6.452;2023-04-30T07:59:34;7.03;;;1.60;;
54261;SDS011;40174;52.364;6.452;2023-04-30T08:02:00;5.22;;;1.35;;
54261;SDS011;40174;52.364;6.452;2023-04-30T08:04:27;5.20;;;1.50;;
54261;SDS011;40174;52.364;6.452;2023-04-30T08:06:54;4.55;;;1.70;;
54261;SDS011;40174;52.364;6.452;2023-04-30T08:09:21;8.20;;;1.63;;
54261;SDS011;40174;52.364;6.452;2023-04-30T08:11:47;5.78;;;1.35;;
54261;SDS011;40174;52.364;6.452;2023-04-30T08:14:14;4.28;;;1.27;;
54261;SDS011;40174;52.364;6.452;2023-04-30T08:16:42;5.78;;;1.95;;
54261;SDS011;40174;52.364;6.452;2023-04-30T08:19:08;7.03;;;1.92;;
54261;SDS011;40174;52.364;6.452;2023-04-30T08:21:35;8.00;;;2.20;;
54261;SDS011;40174;52.364;6.452;2023-04-30T08:24:02;6.72;;;1.90;;
54261;SDS011;40174;52.364;6.452;2023-04-30T08:26:28;6.53;;;1.92;;
54261;SDS011;40174;52.364;6.452;2023-04-30T08:28:55;9.13;;;2.67;;
54261;SDS011;40174;52.364;6.452;2023-04-30T08:31:21;5.22;;;1.90;;
54261;SDS011;40174;52.364;6.452;2023-04-30T08:33:49;6.00;;;2.20;;
54261;SDS011;40174;52.364;6.452;2023-04-30T08:36:16;5.90;;;1.90;;
54261;SDS011;40174;52.364;6.452;2023-04-30T08:38:43;4.45;;;2.00;;
54261;SDS011;40174;52.364;6.452;2023-04-30T08:41:11;7.43;;;2.42;;
54261;SDS011;40174;52.364;6.452;2023-04-30T08:43:38;8.90;;;2.85;;
54261;SDS011;40174;52.364;6.452;2023-04-30T08:46:06;5.60;;;1.83;;
54261;SDS011;40174;52.364;6.452;2023-04-30T08:48:33;9.45;;;1.83;;
54261;SDS011;40174;52.364;6.452;2023-04-30T08:51:02;5.50;;;1.75;;
54261;SDS011;40174;52.364;6.452;2023-04-30T08:53:29;6.20;;;2.42;;
54261;SDS011;40174;52.364;6.452;2023-04-30T08:55:59;9.05;;;2.65;;
54261;SDS011;40174;52.364;6.452;2023-04-30T08:58:26;9.25;;;2.47;;
54261;SDS011;40174;52.364;6.452;2023-04-30T09:00:53;10.10;;;2.47;;
54261;SDS011;40174;52.364;6.452;2023-04-30T09:03:19;7.68;;;2.13;;
54261;SDS011;40174;52.364;6.452;2023-04-30T09:05:47;5.82;;;2.13;;
54261;SDS011;40174;52.364;6.452;2023-04-30T09:08:17;8.80;;;2.00;;
54261;SDS011;40174;52.364;6.452;2023-04-30T09:10:44;5.28;;;2.25;;
54261;SDS011;40174;52.364;6.452;2023-04-30T09:13:11;7.65;;;2.15;;
54261;SDS011;40174;52.364;6.452;2023-04-30T09:15:38;10.88;;;2.00;;
54261;SDS011;40174;52.364;6.452;2023-04-30T09:18:09;7.90;;;2.05;;
54261;SDS011;40174;52.364;6.452;2023-04-30T09:20:52;6.95;;;2.17;;
54261;SDS011;40174;52.364;6.452;2023-04-30T09:23:22;4.13;;;1.85;;
54261;SDS011;40174;52.364;6.452;2023-04-30T09:25:49;7.47;;;2.10;;
54261;SDS011;40174;52.364;6.452;2023-04-30T09:28:15;5.68;;;2.22;;
54261;SDS011;40174;52.364;6.452;2023-04-30T09:30:42;9.20;;;2.15;;
54261;SDS011;40174;52.364;6.452;2023-04-30T09:33:08;7.20;;;2.70;;
54261;SDS011;40174;52.364;6.452;2023-04-30T09:35:36;6.13;;;2.53;;
54261;SDS011;40174;52.364;6.452;2023-04-30T09:38:03;4.13;;;1.88;;
54261;SDS011;40174;52.364;6.452;2023-04-30T09:40:38;8.13;;;1.90;;
54261;SDS011;40174;52.364;6.452;2023-04-30T09:43:06;5.47;;;2.08;;
54261;SDS011;40174;52.364;6.452;2023-04-30T09:45:39;4.60;;;1.67;;
54261;SDS011;40174;52.364;6.452;2023-04-30T09:48:07;9.00;;;2.55;;
54261;SDS011;40174;52.364;6.452;2023-04-30T09:50:36;6.07;;;1.98;;
54261;SDS011;40174;52.364;6.452;2023-04-30T09:53:04;5.25;;;1.92;;
54261;SDS011;40174;52.364;6.452;2023-04-30T09:55:32;7.00;;;2.13;;
54261;SDS011;40174;52.364;6.452;2023-04-30T09:58:01;8.52;;;2.30;;
54261;SDS011;40174;52.364;6.452;2023-04-30T10:00:32;6.38;;;2.10;;
54261;SDS011;40174;52.364;6.452;2023-04-30T10:03:00;5.22;;;2.17;;
54261;SDS011;40174;52.364;6.452;2023-04-30T10:05:33;4.50;;;2.00;;
54261;SDS011;40174;52.364;6.452;2023-04-30T10:08:03;8.02;;;1.98;;
54261;SDS011;40174;52.364;6.452;2023-04-30T10:10:32;7.68;;;2.40;;
54261;SDS011;40174;52.364;6.452;2023-04-30T10:13:01;5.88;;;2.35;;
54261;SDS011;40174;52.364;6.452;2023-04-30T10:15:35;7.20;;;2.78;;
54261;SDS011;40174;52.364;6.452;2023-04-30T10:18:05;6.78;;;2.28;;
54261;SDS011;40174;52.364;6.452;2023-04-30T10:20:36;6.20;;;2.28;;
54261;SDS011;40174;52.364;6.452;2023-04-30T10:23:05;5.25;;;2.42;;
54261;SDS011;40174;52.364;6.452;2023-04-30T10:25:32;9.43;;;2.30;;
54261;SDS011;40174;52.364;6.452;2023-04-30T10:27:59;6.50;;;2.20;;
54261;SDS011;40174;52.364;6.452;2023-04-30T10:30:27;7.35;;;2.20;;
54261;SDS011;40174;52.364;6.452;2023-04-30T10:33:11;4.53;;;1.90;;
54261;SDS011;40174;52.364;6.452;2023-04-30T10:35:44;5.82;;;2.33;;
54261;SDS011;40174;52.364;6.452;2023-04-30T10:38:20;6.75;;;2.00;;
54261;SDS011;40174;52.364;6.452;2023-04-30T10:40:49;7.43;;;2.05;;
54261;SDS011;40174;52.364;6.452;2023-04-30T10:43:18;6.18;;;1.77;;
54261;SDS011;40174;52.364;6.452;2023-04-30T10:45:47;4.95;;;1.92;;
54261;SDS011;40174;52.364;6.452;2023-04-30T10:48:16;5.47;;;2.10;;
54261;SDS011;40174;52.364;6.452;2023-04-30T10:50:49;5.07;;;1.88;;
54261;SDS011;40174;52.364;6.452;2023-04-30T10:53:17;5.22;;;1.85;;
54261;SDS011;40174;52.364;6.452;2023-04-30T10:55:45;7.63;;;2.13;;
54261;SDS011;40174;52.364;6.452;2023-04-30T10:58:24;5.93;;;1.98;;
54261;SDS011;40174;52.364;6.452;2023-04-30T11:01:03;3.80;;;1.70;;
54261;SDS011;40174;52.364;6.452;2023-04-30T11:03:33;7.25;;;2.10;;
54261;SDS011;40174;52.364;6.452;2023-04-30T11:06:06;6.38;;;1.85;;
54261;SDS011;40174;52.364;6.452;2023-04-30T11:08:34;5.07;;;2.00;;
54261;SDS011;40174;52.364;6.452;2023-04-30T11:11:02;5.05;;;1.50;;
54261;SDS011;40174;52.364;6.452;2023-04-30T11:13:37;6.32;;;1.50;;
54261;SDS011;40174;52.364;6.452;2023-04-30T11:16:07;4.70;;;1.60;;
54261;SDS011;40174;52.364;6.452;2023-04-30T11:18:34;3.53;;;1.30;;
54261;SDS011;40174;52.364;6.452;2023-04-30T11:21:07;6.40;;;2.10;;
54261;SDS011;40174;52.364;6.452;2023-04-30T11:23:34;5.13;;;1.60;;
54261;SDS011;40174;52.364;6.452;2023-04-30T11:26:00;3.78;;;1.42;;
54261;SDS011;40174;52.364;6.452;2023-04-30T11:28:27;2.80;;;1.23;;
54261;SDS011;40174;52.364;6.452;2023-04-30T11:30:55;5.15;;;1.48;;
54261;SDS011;40174;52.364;6.452;2023-04-30T11:33:25;5.53;;;1.70;;
54261;SDS011;40174;52.364;6.452;2023-04-30T11:35:52;2.83;;;1.60;;
54261;SDS011;40174;52.364;6.452;2023-04-30T11:38:20;6.95;;;1.90;;
54261;SDS011;40174;52.364;6.452;2023-04-30T11:40:51;5.10;;;1.23;;
54261;SDS011;40174;52.364;6.452;2023-04-30T11:43:21;3.78;;;1.50;;
54261;SDS011;40174;52.364;6.452;2023-04-30T11:46:02;3.80;;;1.33;;
54261;SDS011;40174;52.364;6.452;2023-04-30T11:48:32;3.72;;;1.60;;
54261;SDS011;40174;52.364;6.452;2023-04-30T11:51:01;3.40;;;1.35;;
54261;SDS011;40174;52.364;6.452;2023-04-30T11:53:29;3.17;;;1.25;;
54261;SDS011;40174;52.364;6.452;2023-04-30T11:56:00;3.35;;;1.38;;
54261;SDS011;40174;52.364;6.452;2023-04-30T11:58:31;3.58;;;1.55;;
54261;SDS011;40174;52.364;6.452;2023-04-30T12:00:59;6.03;;;1.98;;
54261;SDS011;40174;52.364;6.452;2023-04-30T12:03:26;8.65;;;1.85;;
54261;SDS011;40174;52.364;6.452;2023-04-30T12:05:55;6.97;;;1.50;;
54261;SDS011;40174;52.364;6.452;2023-04-30T12:08:21;4.60;;;1.60;;
54261;SDS011;40174;52.364;6.452;2023-04-30T12:10:48;3.92;;;1.35;;
54261;SDS011;40174;52.364;6.452;2023-04-30T12:13:15;5.00;;;1.30;;
54261;SDS011;40174;52.364;6.452;2023-04-30T12:15:42;5.60;;;1.45;;
54261;SDS011;40174;52.364;6.452;2023-04-30T12:18:22;6.30;;;1.60;;
54261;SDS011;40174;52.364;6.452;2023-04-30T12:20:48;3.22;;;1.30;;
54261;SDS011;40174;52.364;6.452;2023-04-30T12:23:17;3.60;;;1.33;;
54261;SDS011;40174;52.364;6.452;2023-04-30T12:25:43;5.72;;;1.38;;
54261;SDS011;40174;52.364;6.452;2023-04-30T12:28:11;5.00;;;1.83;;
54261;SDS011;40174;52.364;6.452;2023-04-30T12:30:38;3.13;;;1.38;;
54261;SDS011;40174;52.364;6.452;2023-04-30T12:33:08;3.88;;;1.17;;
54261;SDS011;40174;52.364;6.452;2023-04-30T12:35:35;6.18;;;1.58;;
54261;SDS011;40174;52.364;6.452;2023-04-30T12:38:03;3.97;;;1.30;;
54261;SDS011;40174;52.364;6.452;2023-04-30T12:40:32;5.25;;;1.42;;
54261;SDS011;40174;52.364;6.452;2023-04-30T12:42:59;4.40;;;1.50;;
54261;SDS011;40174;52.364;6.452;2023-04-30T12:45:42;3.20;;;1.17;;
54261;SDS011;40174;52.364;6.452;2023-04-30T12:48:10;3.28;;;1.13;;
54261;SDS011;40174;52.364;6.452;2023-04-30T12:50:38;4.70;;;1.55;;
54261;SDS011;40174;52.364;6.452;2023-04-30T12:53:04;4.88;;;1.38;;
54261;SDS011;40174;52.364;6.452;2023-04-30T12:55:33;5.70;;;1.55;;
54261;SDS011;40174;52.364;6.452;2023-04-30T12:58:01;3.03;;;1.10;;
54261;SDS011;40174;52.364;6.452;2023-04-30T13:00:41;2.30;;;1.00;;
54261;SDS011;40174;52.364;6.452;2023-04-30T13:03:12;3.83;;;1.10;;
54261;SDS011;40174;52.364;6.452;2023-04-30T13:05:38;5.25;;;1.20;;
54261;SDS011;40174;52.364;6.452;2023-04-30T13:08:05;3.05;;;0.85;;
54261;SDS011;40174;52.364;6.452;2023-04-30T13:10:34;8.02;;;1.40;;
54261;SDS011;40174;52.364;6.452;2023-04-30T13:13:01;4.55;;;0.90;;
54261;SDS011;40174;52.364;6.452;2023-04-30T13:15:28;1.85;;;0.82;;
54261;SDS011;40174;52.364;6.452;2023-04-30T13:17:54;4.18;;;1.10;;
54261;SDS011;40174;52.364;6.452;2023-04-30T13:20:21;3.25;;;0.85;;
54261;SDS011;40174;52.364;6.452;2023-04-30T13:22:49;4.55;;;1.00;;
54261;SDS011;40174;52.364;6.452;2023-04-30T13:25:15;2.92;;;1.02;;
54261;SDS011;40174;52.364;6.452;2023-04-30T13:27:43;3.63;;;1.10;;
54261;SDS011;40174;52.364;6.452;2023-04-30T13:30:10;2.22;;;1.08;;
54261;SDS011;40174;52.364;6.452;2023-04-30T13:32:37;2.35;;;0.90;;
54261;SDS011;40174;52.364;6.452;2023-04-30T13:35:04;2.95;;;0.80;;
54261;SDS011;40174;52.364;6.452;2023-04-30T13:37:32;3.97;;;1.20;;
54261;SDS011;40174;52.364;6.452;2023-04-30T13:39:59;3.78;;;0.70;;
54261;SDS011;40174;52.364;6.452;2023-04-30T13:42:27;2.85;;;0.80;;
54261;SDS011;40174;52.364;6.452;2023-04-30T13:44:56;2.50;;;1.10;;
54261;SDS011;40174;52.364;6.452;2023-04-30T13:47:22;1.27;;;0.80;;
54261;SDS011;40174;52.364;6.452;2023-04-30T13:49:49;3.85;;;1.15;;
54261;SDS011;40174;52.364;6.452;2023-04-30T13:52:16;2.30;;;0.93;;
54261;SDS011;40174;52.364;6.452;2023-04-30T13:54:42;2.83;;;0.90;;
54261;SDS011;40174;52.364;6.452;2023-04-30T13:57:09;2.75;;;0.70;;
54261;SDS011;40174;52.364;6.452;2023-04-30T13:59:35;3.85;;;1.15;;
54261;SDS011;40174;52.364;6.452;2023-04-30T14:02:03;2.22;;;0.70;;
54261;SDS011;40174;52.364;6.452;2023-04-30T14:04:30;3.05;;;1.20;;
54261;SDS011;40174;52.364;6.452;2023-04-30T14:06:57;2.58;;;0.98;;
54261;SDS011;40174;52.364;6.452;2023-04-30T14:09:23;3.95;;;1.17;;
54261;SDS011;40174;52.364;6.452;2023-04-30T14:11:51;2.25;;;0.80;;
54261;SDS011;40174;52.364;6.452;2023-04-30T14:14:17;3.00;;;0.90;;
54261;SDS011;40174;52.364;6.452;2023-04-30T14:16:44;3.50;;;1.00;;
54261;SDS011;40174;52.364;6.452;2023-04-30T14:19:12;2.85;;;0.73;;
54261;SDS011;40174;52.364;6.452;2023-04-30T14:21:38;3.70;;;0.80;;
54261;SDS011;40174;52.364;6.452;2023-04-30T14:24:05;2.25;;;0.90;;
54261;SDS011;40174;52.364;6.452;2023-04-30T14:26:32;3.95;;;0.75;;
54261;SDS011;40174;52.364;6.452;2023-04-30T14:28:58;4.63;;;1.10;;
54261;SDS011;40174;52.364;6.452;2023-04-30T14:31:26;2.78;;;1.00;;
54261;SDS011;40174;52.364;6.452;2023-04-30T14:33:52;2.38;;;0.75;;
54261;SDS011;40174;52.364;6.452;2023-04-30T14:36:20;2.33;;;0.77;;
54261;SDS011;40174;52.364;6.452;2023-04-30T14:38:47;4.18;;;0.88;;
54261;SDS011;40174;52.364;6.452;2023-04-30T14:41:13;4.47;;;0.85;;
54261;SDS011;40174;52.364;6.452;2023-04-30T14:43:40;2.05;;;0.70;;
54261;SDS011;40174;52.364;6.452;2023-04-30T14:46:07;3.58;;;0.70;;
54261;SDS011;40174;52.364;6.452;2023-04-30T14:48:33;1.27;;;0.63;;
54261;SDS011;40174;52.364;6.452;2023-04-30T14:51:00;3.30;;;0.90;;
54261;SDS011;40174;52.364;6.452;2023-04-30T14:53:28;3.42;;;0.65;;
54261;SDS011;40174;52.364;6.452;2023-04-30T14:55:54;2.38;;;0.57;;